Balm, North Carolina
Current Conditions -  °F | °C
As of 10:55 PM on Friday 24 Oct 2014 (Local Time) from KTNB Reporting Station
Clear Clear  
Wind Chill: 45°   Ceiling: Unl
Heat Index: 45°   Visibility: 10mi
Dew Point: 36°   Wind: 3mph
Humidity: 70%   Direction: 260°W
Pressure: 30.09"   Gusts: NA
Location:  36.1797°N, 81.8424°W
Report Text: KTNB 250255Z AUTO 26003KT 10SM CLR 07/02 A3009 RMK AO2 T00710020
Loading
Personal Weather Stations






























Interactive Weather Map
Tropical Storm Tracking
New forecast layout! Learn more

10-Day Weather Forecast

Advertisements
Track Severe Weather on mobile